Time;durP1;ratioP1;P1;durP2;ratioP2;P2;SDS_P1;SDS_P2;PMS_P1;PMS_P2;Temp;Humidity;BMP_temperature;BMP_pressure;BME280_temperature;BME280_humidity;BME280_pressure;Samples;Min_cycle;Max_cycle;Signal;HPM_P1;HPM_P2
2022/01/12 00:01:50;;;;;;;4.50;4.10;;;;;;;;;;5072256;28;20198;-85
2022/01/12 00:04:17;;;;;;;5.83;4.87;;;;;;;;;;5071750;28;20721;-85
2022/01/12 00:06:44;;;;;;;5.50;5.00;;;;;;;;;;5072402;28;20203;-84
2022/01/12 00:09:12;;;;;;;5.77;5.13;;;;;;;;;;5071930;28;20234;-85
2022/01/12 00:11:39;;;;;;;5.57;5.00;;;;;;;;;;5072090;28;20212;-85
2022/01/12 00:14:06;;;;;;;5.97;5.37;;;;;;;;;;5071901;28;20244;-84
2022/01/12 00:16:34;;;;;;;5.80;5.00;;;;;;;;;;5072316;28;20233;-85
2022/01/12 00:19:01;;;;;;;6.20;5.20;;;;;;;;;;5054819;28;20241;-84
2022/01/12 00:21:28;;;;;;;5.83;5.30;;;;;;;;;;5051887;28;20207;-84
2022/01/12 00:23:55;;;;;;;6.33;5.73;;;;;;;;;;5051912;28;20256;-84
2022/01/12 00:26:41;;;;;;;6.27;5.53;;;;;;;;;;5054321;28;20213;-84
2022/01/12 00:34:38;;;;;;;5.27;4.77;;;;;;;;;;5052701;28;20243;-84
2022/01/12 00:37:05;;;;;;;6.07;5.57;;;;;;;;;;5055962;28;20210;-84
2022/01/12 00:39:32;;;;;;;5.43;4.93;;;;;;;;;;5056647;28;20241;-83
2022/01/12 00:42:01;;;;;;;6.87;6.00;;;;;;;;;;5055594;28;20206;-84
2022/01/12 00:44:33;;;;;;;6.60;5.67;;;;;;;;;;5055185;28;20693;-84
2022/01/12 00:47:01;;;;;;;7.27;5.80;;;;;;;;;;5055509;28;20677;-84
2022/01/12 00:49:28;;;;;;;11.80;5.57;;;;;;;;;;5056096;28;20313;-84
2022/01/12 00:51:55;;;;;;;6.50;5.90;;;;;;;;;;5055430;28;20292;-84
2022/01/12 00:54:22;;;;;;;6.30;5.40;;;;;;;;;;5054813;28;20234;-84
2022/01/12 00:56:49;;;;;;;6.60;6.00;;;;;;;;;;5055385;28;20222;-84
2022/01/12 00:59:17;;;;;;;6.17;5.57;;;;;;;;;;5059735;28;20232;-84
2022/01/12 01:01:45;;;;;;;6.30;5.70;;;;;;;;;;5075354;28;20674;-84
2022/01/12 01:04:12;;;;;;;6.93;6.23;;;;;;;;;;5074852;28;20715;-83
2022/01/12 01:06:39;;;;;;;6.43;5.73;;;;;;;;;;5063865;28;20205;-84
2022/01/12 01:09:07;;;;;;;6.40;5.73;;;;;;;;;;5054611;28;20242;-84
2022/01/12 01:11:34;;;;;;;7.07;5.73;;;;;;;;;;5055195;28;20210;-83
2022/01/12 01:14:09;;;;;;;5.87;5.27;;;;;;;;;;5054501;28;20238;-84
2022/01/12 01:16:49;;;;;;;6.43;5.63;;;;;;;;;;5066887;28;20222;-84
2022/01/12 01:27:32;;;;;;;6.27;5.67;;;;;;;;;;5054416;28;20182;-84
2022/01/12 01:29:59;;;;;;;6.20;5.60;;;;;;;;;;5054717;28;20213;-84
2022/01/12 01:32:28;;;;;;;6.67;6.07;;;;;;;;;;5072299;28;20213;-84
2022/01/12 01:34:55;;;;;;;6.83;6.07;;;;;;;;;;5074210;28;20205;-84
2022/01/12 01:37:22;;;;;;;6.20;5.60;;;;;;;;;;5074123;28;20205;-84
2022/01/12 01:39:49;;;;;;;7.00;5.83;;;;;;;;;;5074985;28;20578;-83
2022/01/12 01:42:20;;;;;;;7.83;6.33;;;;;;;;;;5073858;28;20209;-84
2022/01/12 01:53:20;;;;;;;7.40;6.00;;;;;;;;;;5059100;28;20228;-84
2022/01/12 01:55:47;;;;;;;7.50;6.27;;;;;;;;;;5054147;28;20226;-83
2022/01/12 01:58:15;;;;;;;7.33;6.53;;;;;;;;;;5053598;28;20238;-84
2022/01/12 02:00:43;;;;;;;6.73;5.97;;;;;;;;;;5058940;28;20294;-84
2022/01/12 02:03:11;;;;;;;8.50;6.63;;;;;;;;;;5059308;28;20225;-84
2022/01/12 02:05:39;;;;;;;7.90;6.33;;;;;;;;;;5051884;28;20206;-84
2022/01/12 02:08:07;;;;;;;6.57;5.87;;;;;;;;;;5067005;28;20303;-84
2022/01/12 02:10:34;;;;;;;7.30;6.37;;;;;;;;;;5070384;28;20252;-83
2022/01/12 02:13:01;;;;;;;7.60;6.13;;;;;;;;;;5053246;28;20234;-84
2022/01/12 02:15:28;;;;;;;6.73;5.93;;;;;;;;;;5053697;28;20236;-83
2022/01/12 02:18:07;;;;;;;7.37;6.63;;;;;;;;;;5053067;28;20260;-84
2022/01/12 02:39:48;;;;;;;7.17;6.30;;;;;;;;;;5072187;28;20228;-84
2022/01/12 02:40:09;;;;;;;7.43;6.03;;;;;;;;;;5033316;28;20215;-84
2022/01/12 02:42:41;;;;;;;6.60;5.90;;;;;;;;;;5032853;28;20237;-83
2022/01/12 02:50:47;;;;;;;7.20;6.33;;;;;;;;;;5053418;28;20200;-84
2022/01/12 02:56:01;;;;;;;9.60;6.70;;;;;;;;;;5053009;28;20229;-84
2022/01/12 02:58:28;;;;;;;8.93;6.60;;;;;;;;;;5051667;28;20264;-83
2022/01/12 03:01:18;;;;;;;7.63;6.83;;;;;;;;;;5069334;28;20205;-83
2022/01/12 03:03:48;;;;;;;7.07;6.17;;;;;;;;;;5071971;28;20236;-83
2022/01/12 03:06:18;;;;;;;8.13;6.70;;;;;;;;;;5072781;28;20213;-83
2022/01/12 03:08:45;;;;;;;7.33;6.30;;;;;;;;;;5059032;28;20229;-83
2022/01/12 03:11:14;;;;;;;9.33;6.17;;;;;;;;;;5053522;28;20208;-84
2022/01/12 03:13:42;;;;;;;7.37;6.53;;;;;;;;;;5052148;28;20238;-83
2022/01/12 03:16:14;;;;;;;7.07;6.37;;;;;;;;;;5052549;28;20236;-83
2022/01/12 03:18:41;;;;;;;7.23;6.47;;;;;;;;;;5052114;28;20639;-83
2022/01/12 03:21:08;;;;;;;8.13;6.60;;;;;;;;;;5052794;28;20217;-83
2022/01/12 03:23:35;;;;;;;7.37;6.30;;;;;;;;;;5051861;28;20302;-84
2022/01/12 03:26:02;;;;;;;8.30;6.10;;;;;;;;;;5052386;28;20206;-84
2022/01/12 03:28:31;;;;;;;8.50;6.77;;;;;;;;;;5053316;28;20242;-83
2022/01/12 03:31:06;;;;;;;8.87;6.40;;;;;;;;;;5052293;28;20217;-83
2022/01/12 03:33:49;;;;;;;7.27;6.47;;;;;;;;;;5051627;28;20237;-84
2022/01/12 03:36:29;;;;;;;8.50;6.40;;;;;;;;;;5052246;28;20595;-84
2022/01/12 03:38:57;;;;;;;9.70;7.20;;;;;;;;;;5051540;28;20319;-83
2022/01/12 03:41:24;;;;;;;7.30;6.20;;;;;;;;;;5052438;28;20245;-84
2022/01/12 03:43:52;;;;;;;8.43;6.83;;;;;;;;;;5053612;28;20228;-83
2022/01/12 03:46:21;;;;;;;7.63;6.23;;;;;;;;;;5072520;28;20212;-83
2022/01/12 03:48:48;;;;;;;8.60;6.83;;;;;;;;;;5070870;28;20244;-82
2022/01/12 03:51:15;;;;;;;8.07;6.73;;;;;;;;;;5079277;28;20207;-83
2022/01/12 03:53:42;;;;;;;7.83;6.43;;;;;;;;;;5071474;28;20236;-83
2022/01/12 03:56:10;;;;;;;7.40;6.27;;;;;;;;;;5072188;28;20260;-83
2022/01/12 03:58:37;;;;;;;7.80;6.10;;;;;;;;;;5071570;28;20240;-82
2022/01/12 04:01:05;;;;;;;7.13;6.43;;;;;;;;;;5067992;28;20204;-83
2022/01/12 04:03:37;;;;;;;7.50;5.93;;;;;;;;;;5052037;28;20242;-84
2022/01/12 04:08:49;;;;;;;9.43;6.57;;;;;;;;;;5031559;28;20243;-83
2022/01/12 04:11:16;;;;;;;7.97;6.60;;;;;;;;;;5032859;28;20208;-84
2022/01/12 04:13:46;;;;;;;6.83;6.13;;;;;;;;;;5031717;28;20233;-83
2022/01/12 04:16:15;;;;;;;8.73;6.80;;;;;;;;;;5032584;28;20317;-83
2022/01/12 04:18:42;;;;;;;9.30;6.47;;;;;;;;;;5031598;28;20249;-83
2022/01/12 04:21:10;;;;;;;8.80;7.17;;;;;;;;;;5044071;28;20815;-83
2022/01/12 04:23:38;;;;;;;7.87;6.50;;;;;;;;;;5073451;28;20239;-83
2022/01/12 04:26:09;;;;;;;7.00;6.27;;;;;;;;;;5072518;28;20236;-83
2022/01/12 04:28:38;;;;;;;7.93;5.97;;;;;;;;;;5071836;28;20242;-83
2022/01/12 04:31:05;;;;;;;7.63;6.53;;;;;;;;;;5072021;28;20801;-84
2022/01/12 04:33:35;;;;;;;10.10;6.63;;;;;;;;;;5071621;28;20239;-83
2022/01/12 04:36:02;;;;;;;8.20;6.37;;;;;;;;;;5070990;28;20232;-83
2022/01/12 04:38:33;;;;;;;6.83;6.10;;;;;;;;;;5068407;28;20235;-83
2022/01/12 04:41:00;;;;;;;7.10;6.40;;;;;;;;;;5072083;28;20216;-83
2022/01/12 04:43:27;;;;;;;7.10;6.17;;;;;;;;;;5071486;28;20239;-84
2022/01/12 04:46:10;;;;;;;7.97;6.70;;;;;;;;;;5071911;28;20207;-83
2022/01/12 04:48:51;;;;;;;8.73;6.20;;;;;;;;;;5071274;28;20250;-83
2022/01/12 04:51:18;;;;;;;8.17;6.83;;;;;;;;;;5072130;28;20292;-84
2022/01/12 04:53:46;;;;;;;7.07;6.37;;;;;;;;;;5070530;28;20250;-83
2022/01/12 04:56:13;;;;;;;7.37;6.27;;;;;;;;;;5071898;28;20227;-83
2022/01/12 04:58:40;;;;;;;9.23;6.50;;;;;;;;;;5054238;28;20239;-84
2022/01/12 05:01:10;;;;;;;8.33;7.43;;;;;;;;;;5052063;28;20219;-83
2022/01/12 05:06:47;;;;;;;7.37;6.50;;;;;;;;;;5031833;28;20279;-84
2022/01/12 05:09:28;;;;;;;8.77;7.13;;;;;;;;;;5031534;28;20246;-83
2022/01/12 05:14:57;;;;;;;8.60;7.23;;;;;;;;;;5020759;28;20312;-83
2022/01/12 05:17:24;;;;;;;11.53;8.07;;;;;;;;;;5031219;28;20791;-83
2022/01/12 05:19:52;;;;;;;8.93;7.17;;;;;;;;;;5032046;28;20323;-83
2022/01/12 05:22:20;;;;;;;10.03;7.37;;;;;;;;;;5034647;28;20232;-83
2022/01/12 05:24:47;;;;;;;9.13;7.27;;;;;;;;;;5035114;28;20224;-83
2022/01/12 05:27:14;;;;;;;9.27;7.87;;;;;;;;;;5048887;28;20282;-83
2022/01/12 05:29:41;;;;;;;10.50;7.77;;;;;;;;;;5074816;28;20309;-83
2022/01/12 05:32:10;;;;;;;8.10;6.70;;;;;;;;;;5069863;28;20207;-83
2022/01/12 05:34:39;;;;;;;10.10;7.87;;;;;;;;;;5054508;28;20230;-83
2022/01/12 05:37:07;;;;;;;9.83;7.87;;;;;;;;;;5054556;28;20383;-83
2022/01/12 05:39:34;;;;;;;10.30;7.80;;;;;;;;;;5053934;28;20247;-83
2022/01/12 05:42:01;;;;;;;9.57;8.27;;;;;;;;;;5055107;28;20216;-83
2022/01/12 05:44:28;;;;;;;11.00;8.33;;;;;;;;;;5064584;28;20290;-82
2022/01/12 05:46:55;;;;;;;11.07;8.53;;;;;;;;;;5072908;28;20211;-83
2022/01/12 05:49:34;;;;;;;10.20;7.63;;;;;;;;;;5073356;28;20234;-82
2022/01/12 05:52:01;;;;;;;9.00;7.50;;;;;;;;;;5069181;28;20700;-83
2022/01/12 05:54:30;;;;;;;10.33;7.90;;;;;;;;;;5059714;28;20235;-83
2022/01/12 05:56:57;;;;;;;16.23;11.10;;;;;;;;;;5054593;28;20295;-83
2022/01/12 05:59:24;;;;;;;19.37;12.37;;;;;;;;;;5053752;28;20245;-84
2022/01/12 06:01:51;;;;;;;17.30;12.03;;;;;;;;;;5056079;28;20221;-83
2022/01/12 06:04:18;;;;;;;15.60;11.23;;;;;;;;;;5064095;28;20235;-83
2022/01/12 06:06:45;;;;;;;17.27;11.27;;;;;;;;;;5054235;28;20211;-83
2022/01/12 06:09:12;;;;;;;16.57;10.80;;;;;;;;;;5053952;28;20261;-84
2022/01/12 06:11:40;;;;;;;14.57;10.33;;;;;;;;;;5068339;28;20638;-84
2022/01/12 06:14:08;;;;;;;17.23;10.63;;;;;;;;;;5075597;28;20237;-83
2022/01/12 06:16:35;;;;;;;18.00;10.30;;;;;;;;;;5076270;28;20226;-86
2022/01/12 06:19:02;;;;;;;13.50;9.73;;;;;;;;;;5076650;28;20238;-86
2022/01/12 06:21:29;;;;;;;15.70;10.80;;;;;;;;;;5076870;28;20204;-86
2022/01/12 06:23:56;;;;;;;16.20;10.33;;;;;;;;;;5073679;28;20244;-86
2022/01/12 06:26:25;;;;;;;18.33;10.97;;;;;;;;;;5073272;28;20203;-86
2022/01/12 06:29:15;;;;;;;13.87;9.33;;;;;;;;;;5071273;28;20261;-85
2022/01/12 06:31:44;;;;;;;14.37;9.63;;;;;;;;;;5070276;28;20231;-84
2022/01/12 06:34:11;;;;;;;12.80;9.57;;;;;;;;;;5070722;28;20245;-85
2022/01/12 06:36:39;;;;;;;14.27;9.53;;;;;;;;;;5074313;28;20381;-85
2022/01/12 06:39:07;;;;;;;11.63;8.70;;;;;;;;;;5098708;22;20222;-80
2022/01/12 06:41:34;;;;;;;12.13;8.80;;;;;;;;;;5076244;28;20208;-81
2022/01/12 06:44:03;;;;;;;10.53;8.13;;;;;;;;;;5056624;28;20242;-81
2022/01/12 06:46:31;;;;;;;10.10;7.30;;;;;;;;;;5060386;28;20206;-81
2022/01/12 06:48:58;;;;;;;8.67;7.33;;;;;;;;;;5076394;28;20229;-81
2022/01/12 06:51:25;;;;;;;8.57;6.97;;;;;;;;;;5075804;28;20869;-81
2022/01/12 06:53:54;;;;;;;9.03;7.37;;;;;;;;;;5075874;28;20242;-81
2022/01/12 06:56:21;;;;;;;9.77;7.23;;;;;;;;;;5075306;28;20603;-81
2022/01/12 06:58:48;;;;;;;9.03;7.17;;;;;;;;;;5076329;28;20241;-81
2022/01/12 07:01:17;;;;;;;10.37;7.57;;;;;;;;;;5094285;28;20684;-81
2022/01/12 07:03:44;;;;;;;9.00;7.27;;;;;;;;;;5093972;28;20230;-81
2022/01/12 07:06:11;;;;;;;9.63;7.80;;;;;;;;;;5094147;28;20687;-82
2022/01/12 07:08:38;;;;;;;13.43;8.17;;;;;;;;;;5092364;28;20747;-81
2022/01/12 07:11:05;;;;;;;9.70;8.00;;;;;;;;;;5090845;28;20205;-81
2022/01/12 07:13:32;;;;;;;12.43;7.83;;;;;;;;;;5072984;28;20599;-81
2022/01/12 07:15:59;;;;;;;10.17;8.30;;;;;;;;;;5073733;28;20214;-82
2022/01/12 07:18:29;;;;;;;11.33;6.47;;;;;;;;;;5073638;28;20245;-82
2022/01/12 07:20:56;;;;;;;11.20;8.40;;;;;;;;;;5074187;28;20661;-82
2022/01/12 07:23:23;;;;;;;8.87;7.27;;;;;;;;;;5074160;28;20236;-83
2022/01/12 07:25:50;;;;;;;10.00;8.00;;;;;;;;;;5073723;28;20216;-82
2022/01/12 07:28:17;;;;;;;13.30;8.10;;;;;;;;;;5073098;28;20226;-82
2022/01/12 07:30:44;;;;;;;12.60;9.23;;;;;;;;;;5073692;28;20206;-83
2022/01/12 07:33:11;;;;;;;12.70;9.37;;;;;;;;;;5074668;28;20232;-83
2022/01/12 07:35:40;;;;;;;14.77;10.57;;;;;;;;;;5071584;28;20229;-83
2022/01/12 07:38:08;;;;;;;15.97;9.70;;;;;;;;;;5072208;28;20233;-83
2022/01/12 07:40:35;;;;;;;12.43;8.40;;;;;;;;;;5072492;28;20216;-82
2022/01/12 07:43:02;;;;;;;13.73;8.50;;;;;;;;;;5071350;28;20312;-83
2022/01/12 07:45:30;;;;;;;12.60;9.80;;;;;;;;;;5070918;28;20215;-82
2022/01/12 07:47:57;;;;;;;11.73;8.87;;;;;;;;;;5071948;28;20232;-83
2022/01/12 07:50:24;;;;;;;15.80;9.43;;;;;;;;;;5064894;28;20224;-82
2022/01/12 07:52:53;;;;;;;11.57;9.07;;;;;;;;;;5072731;28;20225;-80
2022/01/12 07:55:21;;;;;;;13.30;9.87;;;;;;;;;;5070295;28;20198;-80
2022/01/12 07:57:51;;;;;;;13.07;9.27;;;;;;;;;;5069244;28;20284;-80
2022/01/12 08:00:20;;;;;;;11.97;8.90;;;;;;;;;;5072470;28;20226;-80
2022/01/12 08:02:49;;;;;;;12.63;9.27;;;;;;;;;;5071973;28;20242;-80
2022/01/12 08:05:16;;;;;;;13.50;9.17;;;;;;;;;;5072467;28;20205;-80
2022/01/12 08:07:43;;;;;;;12.63;9.27;;;;;;;;;;5072323;28;20773;-80
2022/01/12 08:10:11;;;;;;;16.00;10.13;;;;;;;;;;5072684;28;20226;-80
2022/01/12 08:12:39;;;;;;;14.83;9.87;;;;;;;;;;5071203;28;20311;-80
2022/01/12 08:15:07;;;;;;;13.00;9.73;;;;;;;;;;5071233;28;20395;-83
2022/01/12 08:17:34;;;;;;;19.90;10.37;;;;;;;;;;5072946;28;20238;-81
2022/01/12 08:20:01;;;;;;;13.67;9.47;;;;;;;;;;5072623;28;20693;-80
2022/01/12 08:22:28;;;;;;;12.00;9.13;;;;;;;;;;5074282;28;20645;-81
2022/01/12 08:24:55;;;;;;;14.20;9.73;;;;;;;;;;5074041;28;20201;-81
2022/01/12 08:27:24;;;;;;;12.93;9.40;;;;;;;;;;5072523;28;20198;-81
2022/01/12 08:29:58;;;;;;;14.90;10.10;;;;;;;;;;5073511;28;20232;-82
2022/01/12 08:32:25;;;;;;;17.70;9.43;;;;;;;;;;5073243;28;20216;-82
2022/01/12 08:34:53;;;;;;;15.00;9.90;;;;;;;;;;5073639;28;20191;-81
2022/01/12 08:37:20;;;;;;;11.53;9.73;;;;;;;;;;5072417;28;20230;-80
2022/01/12 08:39:47;;;;;;;13.50;10.10;;;;;;;;;;5072870;28;20245;-80
2022/01/12 08:42:14;;;;;;;14.27;9.73;;;;;;;;;;5072974;28;20212;-80
2022/01/12 08:44:42;;;;;;;12.37;9.13;;;;;;;;;;5073204;28;20207;-82
2022/01/12 08:47:09;;;;;;;12.27;9.53;;;;;;;;;;5073043;28;20572;-82
2022/01/12 08:49:36;;;;;;;12.90;8.67;;;;;;;;;;5073307;28;20247;-82
2022/01/12 08:52:04;;;;;;;11.03;8.20;;;;;;;;;;5073564;28;20213;-82
2022/01/12 08:54:31;;;;;;;14.00;8.77;;;;;;;;;;5072463;28;20244;-82
2022/01/12 08:56:58;;;;;;;12.50;8.63;;;;;;;;;;5075962;28;20206;-82
2022/01/12 08:59:26;;;;;;;13.90;8.27;;;;;;;;;;5073077;28;20233;-82
2022/01/12 09:01:55;;;;;;;10.60;7.43;;;;;;;;;;5076405;28;20410;-82
2022/01/12 09:04:22;;;;;;;13.50;8.13;;;;;;;;;;5075639;28;20245;-82
2022/01/12 09:06:49;;;;;;;13.57;8.13;;;;;;;;;;5076423;28;20298;-81
2022/01/12 09:09:16;;;;;;;13.63;8.13;;;;;;;;;;5076839;28;20261;-82
2022/01/12 09:11:43;;;;;;;12.30;8.47;;;;;;;;;;5076339;28;20310;-81
2022/01/12 09:14:10;;;;;;;11.30;8.30;;;;;;;;;;5076184;28;20243;-81
2022/01/12 09:16:37;;;;;;;13.53;9.00;;;;;;;;;;5076097;28;20207;-81
2022/01/12 09:19:06;;;;;;;11.20;8.33;;;;;;;;;;5075891;28;20246;-81
2022/01/12 09:21:33;;;;;;;11.30;8.70;;;;;;;;;;5074525;28;20216;-81
2022/01/12 09:24:00;;;;;;;12.90;8.73;;;;;;;;;;5075610;28;20247;-82
2022/01/12 09:26:27;;;;;;;10.27;8.70;;;;;;;;;;5075810;28;20207;-81
2022/01/12 09:28:55;;;;;;;12.77;9.03;;;;;;;;;;5074182;28;20235;-82
2022/01/12 09:31:22;;;;;;;13.80;8.67;;;;;;;;;;5076080;28;20207;-81
2022/01/12 09:33:50;;;;;;;14.50;9.70;;;;;;;;;;5075199;28;20232;-82
2022/01/12 09:36:19;;;;;;;16.47;9.57;;;;;;;;;;5075513;28;20651;-81
2022/01/12 09:38:46;;;;;;;13.80;9.03;;;;;;;;;;5074811;28;20222;-82
2022/01/12 09:41:13;;;;;;;11.23;8.63;;;;;;;;;;5075930;28;20206;-82
2022/01/12 09:43:42;;;;;;;14.93;10.23;;;;;;;;;;5075067;28;20242;-82
2022/01/12 09:46:09;;;;;;;14.07;10.53;;;;;;;;;;5075655;28;20211;-81
2022/01/12 09:48:36;;;;;;;15.67;10.07;;;;;;;;;;5075573;28;20235;-85
2022/01/12 09:51:04;;;;;;;14.13;10.90;;;;;;;;;;5080261;28;20209;-83
2022/01/12 09:53:33;;;;;;;13.50;9.27;;;;;;;;;;5090694;28;20727;-84
2022/01/12 09:56:00;;;;;;;14.30;8.90;;;;;;;;;;5075732;28;20209;-84
2022/01/12 09:58:32;;;;;;;13.50;9.10;;;;;;;;;;5075589;28;20239;-83
2022/01/12 10:01:00;;;;;;;15.43;9.80;;;;;;;;;;5076489;28;20230;-82
2022/01/12 10:03:28;;;;;;;10.20;8.30;;;;;;;;;;5073868;28;20699;-82
2022/01/12 10:05:55;;;;;;;12.90;8.97;;;;;;;;;;5075268;28;20207;-82
2022/01/12 10:08:23;;;;;;;10.90;8.90;;;;;;;;;;5075854;28;20722;-82
2022/01/12 10:11:02;;;;;;;14.23;9.13;;;;;;;;;;5076544;28;20204;-83
2022/01/12 10:13:29;;;;;;;12.30;9.20;;;;;;;;;;5077030;28;20235;-83
2022/01/12 10:15:56;;;;;;;12.07;8.77;;;;;;;;;;5074898;28;20200;-83
2022/01/12 10:18:23;;;;;;;10.30;8.53;;;;;;;;;;5083693;28;20252;-83
2022/01/12 10:20:51;;;;;;;13.13;8.63;;;;;;;;;;5084236;28;20245;-82
2022/01/12 10:23:23;;;;;;;12.13;8.17;;;;;;;;;;5084171;28;20243;-82
2022/01/12 10:25:52;;;;;;;12.00;9.43;;;;;;;;;;5069866;28;20200;-81
2022/01/12 10:28:21;;;;;;;12.27;9.00;;;;;;;;;;5064860;28;20235;-81
2022/01/12 10:30:55;;;;;;;12.60;8.97;;;;;;;;;;5081289;28;20196;-82
2022/01/12 10:33:24;;;;;;;13.10;8.80;;;;;;;;;;5082756;28;20232;-81
2022/01/12 10:35:55;;;;;;;16.20;10.13;;;;;;;;;;5097338;28;20212;-81
2022/01/12 10:38:22;;;;;;;13.20;10.27;;;;;;;;;;5087248;28;20228;-81
2022/01/12 10:40:50;;;;;;;14.53;8.87;;;;;;;;;;5076886;28;20245;-81
2022/01/12 10:43:32;;;;;;;9.40;7.47;;;;;;;;;;5077443;28;20280;-81
2022/01/12 10:46:00;;;;;;;15.27;8.80;;;;;;;;;;5075379;28;20657;-81
2022/01/12 10:48:33;;;;;;;12.60;8.90;;;;;;;;;;5075452;28;20704;-81
2022/01/12 10:51:01;;;;;;;14.70;8.40;;;;;;;;;;5076810;28;20238;-81
2022/01/12 10:53:28;;;;;;;15.23;8.43;;;;;;;;;;5076655;28;20707;-82
2022/01/12 10:56:03;;;;;;;10.80;8.40;;;;;;;;;;5076679;28;20208;-81
2022/01/12 10:58:31;;;;;;;21.47;9.33;;;;;;;;;;5074583;28;20229;-82
2022/01/12 11:00:59;;;;;;;10.57;8.17;;;;;;;;;;5077391;28;20711;-82
2022/01/12 11:03:26;;;;;;;9.20;7.97;;;;;;;;;;5075957;28;20678;-82
2022/01/12 11:05:55;;;;;;;10.37;7.83;;;;;;;;;;5076625;28;20196;-82
2022/01/12 11:08:24;;;;;;;13.10;8.10;;;;;;;;;;5075834;28;20250;-82
2022/01/12 11:10:52;;;;;;;9.50;7.43;;;;;;;;;;5076101;28;20206;-82
2022/01/12 11:13:19;;;;;;;9.27;7.17;;;;;;;;;;5075855;28;20238;-82
2022/01/12 11:15:47;;;;;;;12.97;7.10;;;;;;;;;;5075284;28;20215;-81
2022/01/12 11:18:15;;;;;;;14.97;7.80;;;;;;;;;;5073702;28;20233;-81
2022/01/12 11:20:44;;;;;;;9.37;7.33;;;;;;;;;;5075564;28;20209;-81
2022/01/12 11:23:13;;;;;;;8.83;7.37;;;;;;;;;;5074141;28;20229;-81
2022/01/12 11:25:42;;;;;;;12.00;7.60;;;;;;;;;;5074093;28;20204;-82
2022/01/12 11:28:11;;;;;;;10.00;7.77;;;;;;;;;;5072720;28;20870;-81
2022/01/12 11:30:39;;;;;;;10.53;7.70;;;;;;;;;;5074723;28;20193;-82
2022/01/12 11:33:08;;;;;;;8.00;6.37;;;;;;;;;;5075691;28;20225;-82
2022/01/12 11:35:37;;;;;;;9.50;7.00;;;;;;;;;;5068533;28;20210;-82
2022/01/12 11:38:05;;;;;;;8.67;6.80;;;;;;;;;;5065552;28;20256;-82
2022/01/12 11:40:33;;;;;;;8.00;6.40;;;;;;;;;;5076028;28;20240;-83
2022/01/12 11:43:00;;;;;;;9.00;5.53;;;;;;;;;;5076049;28;20235;-82
2022/01/12 11:45:27;;;;;;;8.83;6.40;;;;;;;;;;5075335;28;20205;-82
2022/01/12 11:47:54;;;;;;;7.10;6.40;;;;;;;;;;5055249;28;20234;-80
2022/01/12 11:50:23;;;;;;;7.80;6.33;;;;;;;;;;5054674;28;20276;-83
2022/01/12 11:52:50;;;;;;;9.00;6.67;;;;;;;;;;5054822;28;20584;-82
2022/01/12 11:55:18;;;;;;;6.70;5.50;;;;;;;;;;5056282;28;20205;-81
2022/01/12 11:57:48;;;;;;;5.97;5.37;;;;;;;;;;5055314;28;20229;-81
2022/01/12 12:00:17;;;;;;;9.13;6.73;;;;;;;;;;5078545;28;20357;-81
2022/01/12 12:02:45;;;;;;;9.90;6.97;;;;;;;;;;5092581;28;20243;-81
2022/01/12 12:05:13;;;;;;;10.47;7.17;;;;;;;;;;5079058;28;20209;-81
2022/01/12 12:07:46;;;;;;;8.90;6.80;;;;;;;;;;5073552;28;20236;-81
2022/01/12 12:10:14;;;;;;;9.90;7.30;;;;;;;;;;5074718;28;20878;-81
2022/01/12 12:12:41;;;;;;;8.17;6.63;;;;;;;;;;5073838;28;20237;-80
2022/01/12 12:15:10;;;;;;;10.20;7.10;;;;;;;;;;5076005;28;20298;-83
2022/01/12 12:17:39;;;;;;;8.17;6.33;;;;;;;;;;5071491;28;20230;-82
2022/01/12 12:20:08;;;;;;;7.13;6.30;;;;;;;;;;5066369;28;20244;-83
2022/01/12 12:22:38;;;;;;;10.13;6.83;;;;;;;;;;5082928;28;20229;-83
2022/01/12 12:25:07;;;;;;;9.00;7.17;;;;;;;;;;5091417;28;20208;-83
2022/01/12 12:27:36;;;;;;;8.53;7.13;;;;;;;;;;5079106;28;20689;-83
2022/01/12 12:30:04;;;;;;;9.50;7.47;;;;;;;;;;5073541;28;20255;-83
2022/01/12 12:32:35;;;;;;;8.97;7.73;;;;;;;;;;5075786;28;20237;-84
2022/01/12 12:35:03;;;;;;;9.57;7.27;;;;;;;;;;5075886;28;20221;-83
2022/01/12 12:37:35;;;;;;;10.70;7.73;;;;;;;;;;5076416;28;20207;-83
2022/01/12 12:40:11;;;;;;;8.67;6.90;;;;;;;;;;5076639;28;20594;-83
2022/01/12 12:42:40;;;;;;;11.43;7.73;;;;;;;;;;5076634;28;20240;-83
2022/01/12 12:45:08;;;;;;;9.67;7.40;;;;;;;;;;5077303;28;20186;-83
2022/01/12 12:47:35;;;;;;;9.27;6.80;;;;;;;;;;5077338;28;20312;-83
2022/01/12 12:50:02;;;;;;;8.57;6.73;;;;;;;;;;5077275;28;20693;-83
2022/01/12 12:52:30;;;;;;;11.23;7.70;;;;;;;;;;5077092;28;20231;-83
2022/01/12 12:54:59;;;;;;;10.03;7.50;;;;;;;;;;5077678;28;20602;-83
2022/01/12 12:57:26;;;;;;;8.57;7.27;;;;;;;;;;5077980;28;20216;-83
2022/01/12 13:00:06;;;;;;;8.33;7.50;;;;;;;;;;5078292;28;20236;-83
2022/01/12 13:02:35;;;;;;;11.73;8.57;;;;;;;;;;5074902;28;20236;-83
2022/01/12 13:05:03;;;;;;;8.33;7.33;;;;;;;;;;5080067;28;20212;-83
2022/01/12 13:07:36;;;;;;;8.57;6.87;;;;;;;;;;5078685;28;20269;-83
2022/01/12 13:10:04;;;;;;;10.03;7.90;;;;;;;;;;5078342;28;20224;-83
2022/01/12 13:12:36;;;;;;;9.10;7.37;;;;;;;;;;5082989;27;20693;-83
2022/01/12 13:15:06;;;;;;;10.73;8.20;;;;;;;;;;5092450;28;20214;-83
2022/01/12 13:17:33;;;;;;;8.67;7.63;;;;;;;;;;5081856;28;20239;-83
2022/01/12 13:22:46;;;;;;;8.30;7.30;;;;;;;;;;5078021;28;20238;-83
2022/01/12 13:25:15;;;;;;;8.77;7.20;;;;;;;;;;5079509;28;20227;-82
2022/01/12 13:27:45;;;;;;;9.30;7.23;;;;;;;;;;5076956;28;20749;-83
2022/01/12 13:30:23;;;;;;;7.97;6.77;;;;;;;;;;5078121;28;20224;-83
2022/01/12 13:32:51;;;;;;;14.27;8.53;;;;;;;;;;5077575;28;20235;-83
2022/01/12 13:35:19;;;;;;;10.53;8.03;;;;;;;;;;5077869;28;20733;-83
2022/01/12 13:37:53;;;;;;;9.37;7.53;;;;;;;;;;5077149;28;20795;-83
2022/01/12 13:40:20;;;;;;;9.67;8.10;;;;;;;;;;5076959;28;20686;-83
2022/01/12 13:42:49;;;;;;;9.07;7.60;;;;;;;;;;5076821;28;20236;-83
2022/01/12 13:45:20;;;;;;;12.57;8.47;;;;;;;;;;5077956;28;20208;-83
2022/01/12 13:47:50;;;;;;;13.87;9.30;;;;;;;;;;5077539;28;20237;-83
2022/01/12 13:50:19;;;;;;;8.57;7.23;;;;;;;;;;5077976;28;20225;-83
2022/01/12 13:52:53;;;;;;;9.53;8.00;;;;;;;;;;5078245;28;20239;-83
2022/01/12 13:55:21;;;;;;;8.97;7.40;;;;;;;;;;5077672;28;20234;-83
2022/01/12 13:57:56;;;;;;;10.20;7.87;;;;;;;;;;5072818;28;20230;-83
2022/01/12 14:00:24;;;;;;;10.20;7.80;;;;;;;;;;5083003;28;20703;-83
2022/01/12 14:02:51;;;;;;;9.00;7.50;;;;;;;;;;5082396;28;20240;-83
2022/01/12 14:05:20;;;;;;;10.67;8.10;;;;;;;;;;5081707;28;20209;-83
2022/01/12 14:08:00;;;;;;;9.23;7.20;;;;;;;;;;5080733;28;20257;-83
2022/01/12 14:10:28;;;;;;;9.03;7.97;;;;;;;;;;5093961;28;20219;-82
2022/01/12 14:12:56;;;;;;;10.07;7.37;;;;;;;;;;5098023;28;20232;-82
2022/01/12 14:15:25;;;;;;;8.77;7.33;;;;;;;;;;5080325;28;20205;-82
2022/01/12 14:17:52;;;;;;;10.33;7.87;;;;;;;;;;5074245;28;20287;-83
2022/01/12 14:20:23;;;;;;;9.37;7.43;;;;;;;;;;5079031;28;20241;-83
2022/01/12 14:22:54;;;;;;;9.03;7.53;;;;;;;;;;5092488;28;20233;-83
2022/01/12 14:25:22;;;;;;;8.50;6.90;;;;;;;;;;5080485;28;20208;-82
2022/01/12 14:27:50;;;;;;;9.23;7.53;;;;;;;;;;5080858;28;20686;-82
2022/01/12 14:30:18;;;;;;;8.33;6.97;;;;;;;;;;5080852;28;20701;-83
2022/01/12 14:32:47;;;;;;;8.43;7.10;;;;;;;;;;5075705;28;20239;-84
2022/01/12 14:35:15;;;;;;;9.20;7.70;;;;;;;;;;5073791;28;20221;-85
2022/01/12 14:37:42;;;;;;;10.63;8.20;;;;;;;;;;5078246;28;20229;-84
2022/01/12 14:40:11;;;;;;;8.57;7.50;;;;;;;;;;5078310;28;20229;-85
2022/01/12 14:42:42;;;;;;;9.30;7.60;;;;;;;;;;5076662;28;20232;-85
2022/01/12 14:45:10;;;;;;;10.13;7.03;;;;;;;;;;5076013;28;20263;-85
2022/01/12 14:47:37;;;;;;;10.40;7.87;;;;;;;;;;5076148;28;20697;-85
2022/01/12 14:50:06;;;;;;;8.67;6.80;;;;;;;;;;5077017;28;20231;-85
2022/01/12 14:52:33;;;;;;;9.90;8.37;;;;;;;;;;5076973;28;20237;-84
2022/01/12 14:55:00;;;;;;;9.57;7.27;;;;;;;;;;5077694;28;20552;-85
2022/01/12 14:57:28;;;;;;;7.57;6.67;;;;;;;;;;5077288;28;20228;-84
2022/01/12 14:59:55;;;;;;;10.47;7.57;;;;;;;;;;5086433;28;20220;-85
2022/01/12 15:02:22;;;;;;;9.03;7.40;;;;;;;;;;5094898;28;20215;-84
2022/01/12 15:04:49;;;;;;;10.60;7.60;;;;;;;;;;5096021;28;20204;-84
2022/01/12 15:07:17;;;;;;;8.57;6.93;;;;;;;;;;5097170;28;20201;-83
2022/01/12 15:09:44;;;;;;;9.07;7.30;;;;;;;;;;5087328;28;20209;-83
2022/01/12 15:12:17;;;;;;;10.30;8.57;;;;;;;;;;5080035;28;20746;-83
2022/01/12 15:14:56;;;;;;;13.03;7.80;;;;;;;;;;5079572;28;20229;-83
2022/01/12 15:17:23;;;;;;;9.73;7.83;;;;;;;;;;5084329;28;20207;-83
2022/01/12 15:19:50;;;;;;;10.53;8.03;;;;;;;;;;5098872;28;20232;-83
2022/01/12 15:22:19;;;;;;;10.90;8.77;;;;;;;;;;5093742;28;20444;-83
2022/01/12 15:24:46;;;;;;;10.33;8.17;;;;;;;;;;5093969;28;20204;-83
2022/01/12 15:27:13;;;;;;;11.40;8.47;;;;;;;;;;5096548;28;20205;-81
2022/01/12 15:29:40;;;;;;;12.63;7.93;;;;;;;;;;5097799;28;20299;-83
2022/01/12 15:32:07;;;;;;;9.10;7.03;;;;;;;;;;5097115;28;20584;-83
2022/01/12 15:34:34;;;;;;;9.90;7.60;;;;;;;;;;5096295;28;20243;-83
2022/01/12 15:37:01;;;;;;;13.10;8.00;;;;;;;;;;5096095;28;20278;-84
2022/01/12 15:39:29;;;;;;;10.43;7.90;;;;;;;;;;5094598;28;20649;-83
2022/01/12 15:41:57;;;;;;;8.83;7.53;;;;;;;;;;5092324;28;20212;-84
2022/01/12 15:44:24;;;;;;;11.57;8.40;;;;;;;;;;5091929;28;20251;-84